createdAt,value
2022-11-30T00:01:38.738Z,101042.10
2022-11-30T00:04:08.165Z,101043.81
2022-11-30T00:06:36.705Z,101041.10
2022-11-30T00:09:05.687Z,101039.38
2022-11-30T00:11:34.251Z,101038.03
2022-11-30T00:14:02.820Z,101040.15
2022-11-30T00:16:31.417Z,101040.70
2022-11-30T00:18:59.960Z,101043.17
2022-11-30T00:21:28.472Z,101042.37
2022-11-30T00:23:56.981Z,101040.15
2022-11-30T00:26:25.606Z,101044.65
2022-11-30T00:28:54.174Z,101041.98
2022-11-30T00:31:23.192Z,101047.36
2022-11-30T00:33:51.796Z,101045.35
2022-11-30T00:36:22.896Z,101045.73
2022-11-30T00:38:52.348Z,101046.45
2022-11-30T00:41:21.194Z,101049.22
2022-11-30T00:43:49.843Z,101050.77
2022-11-30T00:46:18.477Z,101050.96
2022-11-30T00:48:47.088Z,101049.89
2022-11-30T00:51:15.806Z,101054.18
2022-11-30T00:53:44.426Z,101055.52
2022-11-30T00:56:13.028Z,101054.38
2022-11-30T00:58:41.592Z,101059.18
2022-11-30T01:01:10.345Z,101062.94
2022-11-30T01:03:38.958Z,101062.41
2022-11-30T01:06:09.854Z,101063.09
2022-11-30T01:08:38.719Z,101063.09
2022-11-30T01:11:14.311Z,101062.27
2022-11-30T01:13:42.898Z,101064.01
2022-11-30T01:16:18.955Z,101064.02
2022-11-30T01:18:48.925Z,101068.87
2022-11-30T01:21:23.342Z,101070.80
2022-11-30T01:23:52.953Z,101071.86
2022-11-30T01:26:22.960Z,101074.49
2022-11-30T01:28:54.071Z,101081.73
2022-11-30T01:31:24.892Z,101084.02
2022-11-30T01:33:55.805Z,101086.09
2022-11-30T01:36:26.646Z,101090.16
2022-11-30T01:38:57.616Z,101094.75
2022-11-30T01:41:32.474Z,101093.34
2022-11-30T01:44:07.090Z,101093.09
2022-11-30T01:46:45.172Z,101095.81
2022-11-30T01:49:23.538Z,101098.34
2022-11-30T01:51:59.781Z,101102.25
2022-11-30T01:55:06.331Z,101102.88
2022-11-30T01:57:59.792Z,101105.05
2022-11-30T02:00:28.784Z,101102.74
2022-11-30T02:03:47.151Z,101098.57
2022-11-30T02:06:15.876Z,101093.91
2022-11-30T02:08:44.567Z,101095.10
2022-11-30T02:11:15.494Z,101095.96
2022-11-30T02:13:49.923Z,101092.00
2022-11-30T02:16:59.009Z,101091.33
2022-11-30T02:19:48.614Z,101090.61
2022-11-30T02:22:38.103Z,101091.06
2022-11-30T02:25:36.734Z,101089.29
2022-11-30T02:28:53.466Z,101087.02
2022-11-30T02:31:28.657Z,101091.11
2022-11-30T02:33:58.674Z,101092.52
2022-11-30T02:36:28.773Z,101089.58
2022-11-30T02:38:58.079Z,101094.72
2022-11-30T02:41:26.646Z,101097.95
2022-11-30T02:43:55.267Z,101100.33
2022-11-30T02:46:32.459Z,101102.02
2022-11-30T02:49:22.199Z,101102.55
2022-11-30T02:51:53.583Z,101105.97
2022-11-30T02:54:22.600Z,101106.98
2022-11-30T02:56:51.273Z,101106.08
2022-11-30T02:59:20.775Z,101105.15
2022-11-30T03:01:49.450Z,101108.73
2022-11-30T03:04:18.083Z,101107.41
2022-11-30T03:06:46.590Z,101109.17
2022-11-30T03:09:15.310Z,101110.58
2022-11-30T03:11:43.846Z,101111.63
2022-11-30T03:14:12.911Z,101110.78
2022-11-30T03:16:41.754Z,101110.27
2022-11-30T03:19:10.527Z,101117.00
2022-11-30T03:21:39.134Z,101118.90
2022-11-30T03:24:08.203Z,101126.44
2022-11-30T03:26:36.874Z,101126.44
2022-11-30T03:29:05.609Z,101128.52
2022-11-30T03:31:34.261Z,101130.40
2022-11-30T03:34:02.956Z,101132.98
2022-11-30T03:36:31.539Z,101129.89
2022-11-30T03:39:00.275Z,101137.96
2022-11-30T03:41:29.285Z,101139.63
2022-11-30T03:43:57.874Z,101143.41
2022-11-30T03:46:27.700Z,101143.55
2022-11-30T03:48:56.247Z,101146.29
2022-11-30T03:51:24.778Z,101149.15
2022-11-30T03:53:53.296Z,101150.63
2022-11-30T03:56:21.921Z,101155.44
2022-11-30T03:58:51.286Z,101154.57
2022-11-30T04:01:25.302Z,101158.52
2022-11-30T04:03:54.436Z,101162.64
2022-11-30T04:06:22.946Z,101167.55
2022-11-30T04:08:51.615Z,101170.64
2022-11-30T04:11:20.172Z,101167.04
2022-11-30T04:13:48.745Z,101168.77
2022-11-30T04:16:17.380Z,101169.14
2022-11-30T04:18:46.060Z,101170.13
2022-11-30T04:21:14.675Z,101168.70
2022-11-30T04:23:43.235Z,101169.85
2022-11-30T04:26:15.169Z,101170.33
2022-11-30T04:28:44.830Z,101169.10
2022-11-30T04:31:14.122Z,101171.46
2022-11-30T04:33:42.770Z,101169.64
2022-11-30T04:36:20.343Z,101171.11
2022-11-30T04:38:49.017Z,101169.71
2022-11-30T04:41:17.597Z,101168.48
2022-11-30T04:43:46.215Z,101170.33
2022-11-30T04:46:14.838Z,101171.66
2022-11-30T04:48:43.494Z,101171.31
2022-11-30T04:51:12.096Z,101170.41
2022-11-30T04:53:40.633Z,101169.70
2022-11-30T04:56:11.609Z,101170.38
2022-11-30T04:58:40.232Z,101171.23
2022-11-30T05:01:09.282Z,101173.10
2022-11-30T05:03:37.837Z,101175.69
2022-11-30T05:06:06.773Z,101178.23
2022-11-30T05:08:35.352Z,101178.72
2022-11-30T05:11:03.914Z,101179.60
2022-11-30T05:13:32.495Z,101181.09
2022-11-30T05:16:01.089Z,101181.20
2022-11-30T05:18:31.752Z,101183.42
2022-11-30T05:21:00.459Z,101180.95
2022-11-30T05:23:29.249Z,101182.96
2022-11-30T05:25:57.854Z,101185.71
2022-11-30T05:28:26.355Z,101187.10
2022-11-30T05:30:54.878Z,101187.34
2022-11-30T05:33:23.409Z,101190.31
2022-11-30T05:35:51.906Z,101190.89
2022-11-30T05:38:20.661Z,101190.29
2022-11-30T05:40:49.327Z,101196.35
2022-11-30T05:43:18.975Z,101197.40
2022-11-30T05:45:47.484Z,101197.59
2022-11-30T05:48:16.011Z,101198.82
2022-11-30T05:50:44.523Z,101198.17
2022-11-30T05:53:13.130Z,101196.46
2022-11-30T05:55:42.372Z,101193.17
2022-11-30T05:58:11.332Z,101201.25
2022-11-30T06:00:39.885Z,101200.02
2022-11-30T06:03:08.719Z,101201.85
2022-11-30T06:05:37.392Z,101204.77
2022-11-30T06:08:05.978Z,101212.14
2022-11-30T06:10:34.484Z,101208.84
2022-11-30T06:13:09.892Z,101205.20
2022-11-30T06:15:39.443Z,101210.49
2022-11-30T06:18:11.297Z,101210.16
2022-11-30T06:20:40.777Z,101209.83
2022-11-30T06:23:09.309Z,101215.33
2022-11-30T06:25:38.019Z,101220.67
2022-11-30T06:28:10.193Z,101224.49
2022-11-30T06:30:38.857Z,101221.04
2022-11-30T06:33:07.354Z,101225.50
2022-11-30T06:35:36.040Z,101224.45
2022-11-30T06:38:04.592Z,101228.26
2022-11-30T06:40:33.267Z,101231.40
2022-11-30T06:43:01.900Z,101234.13
2022-11-30T06:45:31.833Z,101234.99
2022-11-30T06:48:00.466Z,101236.15
2022-11-30T06:50:29.033Z,101235.16
2022-11-30T06:52:57.710Z,101237.28
2022-11-30T06:55:26.312Z,101238.50
2022-11-30T06:57:54.839Z,101242.11
2022-11-30T07:00:23.821Z,101242.33
2022-11-30T07:02:52.400Z,101246.05
2022-11-30T07:05:21.034Z,101247.52
2022-11-30T07:07:49.594Z,101249.05
2022-11-30T07:10:20.278Z,101252.45
2022-11-30T07:12:50.220Z,101250.14
2022-11-30T07:15:18.811Z,101254.77
2022-11-30T07:17:47.288Z,101252.88
2022-11-30T07:20:15.889Z,101251.34
2022-11-30T07:22:44.395Z,101253.38
2022-11-30T07:25:31.746Z,101255.58
2022-11-30T07:28:00.263Z,101255.20
2022-11-30T07:30:31.498Z,101260.30
2022-11-30T07:32:59.999Z,101261.32
2022-11-30T07:35:28.569Z,101259.39
2022-11-30T07:37:57.199Z,101261.05
2022-11-30T07:40:25.802Z,101262.91
2022-11-30T07:42:57.806Z,101266.16
2022-11-30T07:45:26.307Z,101266.12
2022-11-30T07:47:54.898Z,101267.65
2022-11-30T07:50:23.423Z,101270.56
2022-11-30T07:52:51.925Z,101272.90
2022-11-30T07:55:23.625Z,101274.23
2022-11-30T07:57:53.143Z,101277.46
2022-11-30T08:00:21.687Z,101277.41
2022-11-30T08:02:51.493Z,101277.73
2022-11-30T08:05:20.175Z,101275.50
2022-11-30T08:07:52.830Z,101272.77
2022-11-30T08:10:23.813Z,101275.05
2022-11-30T08:12:53.228Z,101275.41
2022-11-30T08:15:24.997Z,101275.75
2022-11-30T08:18:05.411Z,101277.30
2022-11-30T08:20:34.001Z,101274.69
2022-11-30T08:23:02.548Z,101276.36
2022-11-30T08:25:31.918Z,101279.26
2022-11-30T08:28:00.766Z,101276.14
2022-11-30T08:30:32.467Z,101279.21
2022-11-30T08:33:01.341Z,101277.48
2022-11-30T08:35:29.960Z,101279.95
2022-11-30T08:37:58.501Z,101275.84
2022-11-30T08:40:27.672Z,101278.25
2022-11-30T08:42:56.184Z,101276.66
2022-11-30T08:45:24.715Z,101279.83
2022-11-30T08:47:55.061Z,101280.95
2022-11-30T08:50:23.639Z,101285.31
2022-11-30T08:52:55.828Z,101286.77
2022-11-30T08:55:24.336Z,101286.34
2022-11-30T08:57:52.885Z,101289.89
2022-11-30T09:00:21.704Z,101293.67
2022-11-30T09:02:50.420Z,101296.08
2022-11-30T09:05:19.198Z,101300.01
2022-11-30T09:07:47.802Z,101301.92
2022-11-30T09:10:16.587Z,101301.70
2022-11-30T09:12:45.111Z,101302.85
2022-11-30T09:15:13.710Z,101301.08
2022-11-30T09:17:42.252Z,101298.23
2022-11-30T09:20:11.702Z,101296.39
2022-11-30T09:22:40.274Z,101296.45
2022-11-30T09:25:10.458Z,101295.06
2022-11-30T09:27:39.011Z,101296.65
2022-11-30T09:30:08.559Z,101300.27
2022-11-30T09:32:37.102Z,101296.30
2022-11-30T09:35:11.335Z,101299.92
2022-11-30T09:37:41.547Z,101298.20
2022-11-30T09:40:13.590Z,101294.38
2022-11-30T09:43:19.077Z,101298.63
2022-11-30T09:46:03.450Z,101300.08
2022-11-30T09:49:04.445Z,101302.15
2022-11-30T09:51:46.530Z,101300.62
2022-11-30T09:54:44.423Z,101300.06
2022-11-30T09:57:27.972Z,101301.38
2022-11-30T10:00:01.603Z,101304.64
2022-11-30T10:02:36.690Z,101305.50
2022-11-30T10:05:17.285Z,101306.48
2022-11-30T10:08:26.134Z,101308.75
2022-11-30T10:11:18.649Z,101307.91
2022-11-30T10:14:17.800Z,101309.95
2022-11-30T10:17:26.722Z,101308.34
2022-11-30T10:20:38.154Z,101307.36
2022-11-30T10:23:23.162Z,101306.76
2022-11-30T10:25:57.776Z,101307.21
2022-11-30T10:28:55.457Z,101304.05
2022-11-30T10:31:55.900Z,101303.11
2022-11-30T10:34:36.193Z,101302.90
2022-11-30T10:37:08.488Z,101302.55
2022-11-30T10:39:56.852Z,101302.38
2022-11-30T10:42:53.486Z,101293.27
2022-11-30T10:45:24.488Z,101291.04
2022-11-30T10:48:06.209Z,101293.46
2022-11-30T10:50:34.853Z,101298.30
2022-11-30T10:53:03.550Z,101297.42
2022-11-30T10:55:59.824Z,101299.51
2022-11-30T10:58:32.299Z,101298.54
2022-11-30T11:01:08.276Z,101300.33
2022-11-30T11:03:38.104Z,101302.40
2022-11-30T11:06:23.575Z,101304.28
2022-11-30T11:08:52.138Z,101306.81
2022-11-30T11:11:58.326Z,101306.44
2022-11-30T11:14:29.725Z,101306.59
2022-11-30T11:17:21.906Z,101301.45
2022-11-30T11:19:51.706Z,101300.24
2022-11-30T11:22:27.147Z,101295.14
2022-11-30T11:25:20.565Z,101294.36
2022-11-30T11:28:04.377Z,101295.14
2022-11-30T11:30:33.265Z,101297.23
2022-11-30T11:33:24.855Z,101299.61
2022-11-30T11:36:12.584Z,101296.10
2022-11-30T11:38:43.552Z,101295.59
2022-11-30T11:41:35.077Z,101297.61
2022-11-30T11:44:09.774Z,101296.35
2022-11-30T11:46:53.556Z,101295.99
2022-11-30T11:49:35.672Z,101295.36
2022-11-30T11:52:20.339Z,101298.79
2022-11-30T11:54:58.498Z,101299.29
2022-11-30T11:58:00.704Z,101297.76
2022-11-30T12:00:30.274Z,101297.25
2022-11-30T12:03:15.109Z,101302.21
2022-11-30T12:05:54.305Z,101301.23
2022-11-30T12:08:31.540Z,101303.98
2022-11-30T12:11:07.281Z,101304.41
2022-11-30T12:13:42.602Z,101302.95
2022-11-30T12:16:32.468Z,101305.31
2022-11-30T12:19:22.981Z,101311.25
2022-11-30T12:21:57.487Z,101315.09
2022-11-30T12:24:48.203Z,101313.88
2022-11-30T12:27:55.216Z,101315.28
2022-11-30T12:30:55.271Z,101316.52
2022-11-30T12:33:42.907Z,101318.44
2022-11-30T12:36:26.236Z,101317.73
2022-11-30T12:39:30.069Z,101313.23
2022-11-30T12:42:33.135Z,101312.39
2022-11-30T12:45:31.213Z,101310.69
2022-11-30T12:48:21.231Z,101311.58
2022-11-30T12:51:17.605Z,101310.75
2022-11-30T12:53:52.535Z,101308.06
2022-11-30T12:56:31.146Z,101307.22
2022-11-30T12:59:19.644Z,101306.42
2022-11-30T13:02:28.460Z,101302.11
2022-11-30T13:05:06.850Z,101306.10
2022-11-30T13:07:45.355Z,101306.80
2022-11-30T13:10:29.500Z,101307.90
2022-11-30T13:13:01.122Z,101313.08
2022-11-30T13:15:34.151Z,101310.67
2022-11-30T13:18:03.955Z,101307.77
2022-11-30T13:21:06.416Z,101306.37
2022-11-30T13:23:54.371Z,101300.09
2022-11-30T13:26:37.633Z,101297.94
2022-11-30T13:29:23.199Z,101301.76
2022-11-30T13:32:41.149Z,101301.42
2022-11-30T13:35:29.405Z,101299.13
2022-11-30T13:41:09.389Z,101301.39
2022-11-30T13:43:48.283Z,101306.09
2022-11-30T13:46:22.052Z,101305.48
2022-11-30T13:49:35.825Z,101310.23
2022-11-30T13:52:23.151Z,101315.08
2022-11-30T13:54:57.419Z,101316.69
2022-11-30T13:57:29.098Z,101318.83
2022-11-30T14:00:00.391Z,101321.98
2022-11-30T14:02:36.563Z,101321.36
2022-11-30T14:05:17.625Z,101325.00
2022-11-30T14:07:52.541Z,101332.59
2022-11-30T14:10:43.223Z,101327.27
2022-11-30T14:13:11.746Z,101325.08
2022-11-30T14:15:41.693Z,101328.55
2022-11-30T14:18:10.239Z,101330.63
2022-11-30T14:20:54.716Z,101330.66
2022-11-30T14:24:05.467Z,101323.64
2022-11-30T14:26:47.094Z,101324.20
2022-11-30T14:29:23.662Z,101323.49
2022-11-30T14:32:08.373Z,101324.13
2022-11-30T14:34:43.955Z,101321.66
2022-11-30T14:37:20.915Z,101321.96
2022-11-30T14:39:51.120Z,101324.70
2022-11-30T14:42:28.162Z,101325.19
2022-11-30T14:44:57.499Z,101327.09
2022-11-30T14:47:33.358Z,101322.24
2022-11-30T14:50:08.303Z,101323.30
2022-11-30T14:53:34.385Z,101322.34
2022-11-30T14:56:22.369Z,101325.85
2022-11-30T14:59:16.508Z,101327.73
2022-11-30T15:01:45.521Z,101330.14
2022-11-30T15:04:17.782Z,101330.34
2022-11-30T15:06:46.388Z,101329.98
2022-11-30T15:09:22.188Z,101333.23
2022-11-30T15:11:52.688Z,101335.45
2022-11-30T15:14:21.618Z,101333.89
2022-11-30T15:16:57.114Z,101337.33
2022-11-30T15:19:34.442Z,101335.66
2022-11-30T15:22:03.051Z,101340.89
2022-11-30T15:24:31.599Z,101337.14
2022-11-30T15:27:10.653Z,101334.29
2022-11-30T15:29:45.700Z,101333.30
2022-11-30T15:32:18.477Z,101332.63
2022-11-30T15:34:57.644Z,101332.14
2022-11-30T15:37:47.065Z,101332.85
2022-11-30T15:40:37.513Z,101334.88
2022-11-30T15:43:06.197Z,101336.89
2022-11-30T15:45:36.466Z,101337.16
2022-11-30T15:48:28.301Z,101337.63
2022-11-30T15:50:57.453Z,101341.28
2022-11-30T15:53:36.068Z,101341.65
2022-11-30T15:56:09.584Z,101341.70
2022-11-30T15:59:27.355Z,101344.96
2022-11-30T16:02:24.592Z,101347.73
2022-11-30T16:05:15.698Z,101348.64
2022-11-30T16:08:03.849Z,101350.11
2022-11-30T16:10:39.216Z,101351.15
2022-11-30T16:13:12.738Z,101353.23
2022-11-30T16:15:46.915Z,101351.17
2022-11-30T16:18:19.170Z,101350.52
2022-11-30T16:21:00.240Z,101356.73
2022-11-30T16:23:29.833Z,101354.64
2022-11-30T16:25:59.414Z,101359.42
2022-11-30T16:28:27.952Z,101358.18
2022-11-30T16:31:00.659Z,101359.52
2022-11-30T16:33:29.347Z,101358.94
2022-11-30T16:36:09.657Z,101358.86
2022-11-30T16:38:38.222Z,101360.86
2022-11-30T16:41:27.434Z,101364.78
2022-11-30T16:43:57.888Z,101366.84
2022-11-30T16:46:29.316Z,101363.52
2022-11-30T16:48:58.160Z,101365.74
2022-11-30T16:51:34.594Z,101370.55
2022-11-30T16:54:03.945Z,101371.02
2022-11-30T16:56:33.364Z,101371.88
2022-11-30T16:59:01.871Z,101369.98
2022-11-30T17:01:43.762Z,101372.29
2022-11-30T17:04:19.095Z,101375.55
2022-11-30T17:06:50.767Z,101378.13
2022-11-30T17:09:21.282Z,101381.03
2022-11-30T17:11:51.354Z,101381.86
2022-11-30T17:14:21.155Z,101384.55
2022-11-30T17:16:49.989Z,101380.76
2022-11-30T17:19:19.013Z,101381.73
2022-11-30T17:21:48.541Z,101385.68
2022-11-30T17:24:17.069Z,101382.39
2022-11-30T17:26:46.069Z,101384.08
2022-11-30T17:29:14.612Z,101388.02
2022-11-30T17:31:43.144Z,101388.52
2022-11-30T17:34:11.710Z,101390.39
2022-11-30T17:36:40.246Z,101390.85
2022-11-30T17:39:09.109Z,101394.44
2022-11-30T17:41:37.658Z,101394.06
2022-11-30T17:44:06.185Z,101393.72
2022-11-30T17:46:37.844Z,101390.80
2022-11-30T17:49:06.794Z,101390.08
2022-11-30T17:51:35.407Z,101391.83
2022-11-30T17:54:04.129Z,101392.70
2022-11-30T17:56:32.653Z,101394.57
2022-11-30T17:59:01.194Z,101394.54
2022-11-30T18:01:29.826Z,101399.15
2022-11-30T18:03:59.041Z,101397.70
2022-11-30T18:06:28.406Z,101402.48
2022-11-30T18:08:58.173Z,101401.73
2022-11-30T18:11:26.929Z,101402.39
2022-11-30T18:13:56.759Z,101407.20
2022-11-30T18:16:29.814Z,101407.88
2022-11-30T18:18:59.934Z,101407.21
2022-11-30T18:21:29.960Z,101408.45
2022-11-30T18:23:59.200Z,101410.67
2022-11-30T18:26:28.084Z,101407.55
2022-11-30T18:29:00.525Z,101408.60
2022-11-30T18:31:30.892Z,101409.61
2022-11-30T18:34:03.330Z,101415.50
2022-11-30T18:36:34.315Z,101413.27
2022-11-30T18:39:03.165Z,101415.68
2022-11-30T18:41:31.741Z,101412.59
2022-11-30T18:44:00.284Z,101410.97
2022-11-30T18:46:28.905Z,101415.48
2022-11-30T18:48:59.212Z,101417.79
2022-11-30T18:51:30.673Z,101417.48
2022-11-30T18:54:03.665Z,101423.19
2022-11-30T18:56:35.804Z,101422.69
2022-11-30T18:59:12.817Z,101424.27
2022-11-30T19:01:42.802Z,101424.09
2022-11-30T19:04:12.528Z,101423.41
2022-11-30T19:06:43.958Z,101431.98
2022-11-30T19:09:15.600Z,101431.30
2022-11-30T19:11:45.432Z,101430.80
2022-11-30T19:14:17.253Z,101433.55
2022-11-30T19:16:47.859Z,101433.05
2022-11-30T19:19:18.053Z,101432.14
2022-11-30T19:21:48.300Z,101432.13
2022-11-30T19:24:18.779Z,101433.69
2022-11-30T19:26:49.139Z,101433.31
2022-11-30T19:29:19.427Z,101433.45
2022-11-30T19:31:51.394Z,101434.49
2022-11-30T19:34:21.927Z,101429.49
2022-11-30T19:36:52.033Z,101431.05
2022-11-30T19:39:21.976Z,101428.79
2022-11-30T19:41:52.147Z,101434.45
2022-11-30T19:44:22.157Z,101432.56
2022-11-30T19:46:52.184Z,101436.34
2022-11-30T19:49:22.223Z,101437.90
2022-11-30T19:51:52.374Z,101433.97
2022-11-30T19:54:21.984Z,101432.61
2022-11-30T19:56:51.936Z,101434.34
2022-11-30T19:59:21.424Z,101432.10
2022-11-30T20:01:50.958Z,101431.06
2022-11-30T20:04:20.829Z,101427.63
2022-11-30T20:06:50.931Z,101434.19
2022-11-30T20:09:23.249Z,101438.67
2022-11-30T20:11:54.390Z,101437.52
2022-11-30T20:14:23.297Z,101440.48
2022-11-30T20:16:53.144Z,101439.19
2022-11-30T20:19:22.094Z,101441.44
2022-11-30T20:21:51.411Z,101440.98
2022-11-30T20:24:20.610Z,101442.77
2022-11-30T20:26:49.716Z,101440.41
2022-11-30T20:29:19.115Z,101440.77
2022-11-30T20:31:49.688Z,101439.30
2022-11-30T20:34:18.409Z,101437.63
2022-11-30T20:36:47.310Z,101442.16
2022-11-30T20:39:16.033Z,101441.76
2022-11-30T20:41:44.697Z,101438.94
2022-11-30T20:44:15.906Z,101444.33
2022-11-30T20:46:44.705Z,101443.99
2022-11-30T20:49:18.073Z,101450.52
2022-11-30T20:51:47.976Z,101447.42
2022-11-30T20:54:16.944Z,101451.20
2022-11-30T20:56:50.129Z,101449.67
2022-11-30T20:59:23.713Z,101454.61
2022-11-30T21:01:55.322Z,101458.85
2022-11-30T21:04:28.471Z,101460.04
2022-11-30T21:06:57.069Z,101463.12
2022-11-30T21:09:25.691Z,101463.85
2022-11-30T21:11:54.315Z,101467.03
2022-11-30T21:14:22.978Z,101469.55
2022-11-30T21:16:51.624Z,101467.69
2022-11-30T21:19:20.209Z,101467.31
2022-11-30T21:21:48.731Z,101465.20
2022-11-30T21:24:17.289Z,101468.27
2022-11-30T21:26:45.888Z,101464.64
2022-11-30T21:29:16.975Z,101461.90
2022-11-30T21:31:46.080Z,101461.58
2022-11-30T21:34:14.816Z,101460.07
2022-11-30T21:36:43.412Z,101461.27
2022-11-30T21:39:15.045Z,101460.42
2022-11-30T21:41:44.504Z,101464.02
2022-11-30T21:44:15.455Z,101461.77
2022-11-30T21:46:46.689Z,101459.90
2022-11-30T21:49:16.243Z,101462.02
2022-11-30T21:51:44.819Z,101464.80
2022-11-30T21:54:13.733Z,101462.11
2022-11-30T21:56:46.036Z,101465.63
2022-11-30T21:59:14.848Z,101468.58
2022-11-30T22:01:45.044Z,101467.42
2022-11-30T22:04:15.569Z,101466.27
2022-11-30T22:06:44.360Z,101464.25
2022-11-30T22:09:16.729Z,101463.20
2022-11-30T22:11:46.683Z,101461.80
2022-11-30T22:14:16.952Z,101462.80
2022-11-30T22:16:45.742Z,101464.54
2022-11-30T22:19:15.513Z,101463.02
2022-11-30T22:21:49.760Z,101465.80
2022-11-30T22:24:18.895Z,101465.25
2022-11-30T22:26:49.379Z,101463.86
2022-11-30T22:29:23.206Z,101465.63
2022-11-30T22:31:54.347Z,101464.79
2022-11-30T22:34:23.037Z,101468.09
2022-11-30T22:36:51.668Z,101466.52
2022-11-30T22:39:21.733Z,101465.46
2022-11-30T22:41:55.605Z,101466.69
2022-11-30T22:44:26.483Z,101468.58
2022-11-30T22:46:55.284Z,101464.79
2022-11-30T22:49:24.433Z,101460.85
2022-11-30T22:51:53.100Z,101463.24
2022-11-30T22:54:21.933Z,101459.08
2022-11-30T22:56:50.529Z,101456.82
2022-11-30T22:59:19.184Z,101453.50
2022-11-30T23:01:50.211Z,101450.89
2022-11-30T23:04:23.076Z,101450.71
2022-11-30T23:06:52.299Z,101451.55
2022-11-30T23:09:23.910Z,101451.53
2022-11-30T23:11:52.719Z,101452.92
2022-11-30T23:14:21.382Z,101455.19
2022-11-30T23:16:49.956Z,101457.13
2022-11-30T23:19:18.548Z,101454.22
2022-11-30T23:21:47.138Z,101451.80
2022-11-30T23:24:20.786Z,101450.09
2022-11-30T23:26:50.095Z,101448.08
2022-11-30T23:29:19.214Z,101451.41
2022-11-30T23:31:48.606Z,101452.30
2022-11-30T23:34:21.596Z,101451.27
2022-11-30T23:36:51.307Z,101449.88
2022-11-30T23:39:20.752Z,101449.04
2022-11-30T23:41:49.310Z,101447.66
2022-11-30T23:44:18.263Z,101445.61
2022-11-30T23:46:47.191Z,101442.90
2022-11-30T23:49:15.882Z,101440.17
2022-11-30T23:51:44.514Z,101438.13
2022-11-30T23:54:13.268Z,101433.55
2022-11-30T23:56:41.880Z,101431.89
2022-11-30T23:59:10.422Z,101429.55
